LFRV 121530Z AUTO 27006KT 240V300 9999 BKN007 BKN014 OVC029 09/09 Q1029

ElémentsDécodage
LFRV Station météo située sur l'aérodrome de VANNES Meucon
121530Z émis le 12 du mois à 15h30 UTC
AUTO Bulletin édité par un automate
27006KT vent du 270°, 06 noeuds
240V300 vent de direction variable entre 240° et 300°
9999 visibilité horizontale supérieure à 10 Km
BKN007 nuages morcelés (5/8 à 7/8) à 700 pieds
BKN014 nuages morcelés (5/8 à 7/8) à 1400 pieds
OVC029 couverture nuageuse totale (8/8) à 2900 pieds
09/09 température 09°C, point de rosée 09°C
 soit une humidité relative de 100%
Q1029 la pression au niveau de la mer (QNH) est de 1029 hPa